createdAt,value
2018-01-13T00:00:49.088Z,142.40
2018-01-13T00:01:49.078Z,146.10
2018-01-13T00:02:49.071Z,149.00
2018-01-13T00:03:49.064Z,146.10
2018-01-13T00:04:49.053Z,145.00
2018-01-13T00:05:49.050Z,149.30
2018-01-13T00:06:49.042Z,145.10
2018-01-13T00:07:49.034Z,142.00
2018-01-13T00:08:49.025Z,141.10
2018-01-13T00:09:49.018Z,151.10
2018-01-13T00:10:49.008Z,144.60
2018-01-13T00:11:49.001Z,147.40
2018-01-13T00:12:48.991Z,150.50
2018-01-13T00:13:48.984Z,137.80
2018-01-13T00:14:48.972Z,145.80
2018-01-13T00:15:48.963Z,144.30
2018-01-13T00:16:48.954Z,142.40
2018-01-13T00:17:48.946Z,141.70
2018-01-13T00:18:48.939Z,149.20
2018-01-13T00:19:48.930Z,142.50
2018-01-13T00:20:48.921Z,139.40
2018-01-13T00:21:48.913Z,146.00
2018-01-13T00:22:48.910Z,152.00
2018-01-13T00:23:48.901Z,147.10
2018-01-13T00:24:48.892Z,145.20
2018-01-13T00:25:48.883Z,149.50
2018-01-13T00:26:48.875Z,150.20
2018-01-13T00:27:48.868Z,148.40
2018-01-13T00:28:48.858Z,154.60
2018-01-13T00:29:48.850Z,152.30
2018-01-13T00:30:48.838Z,156.10
2018-01-13T00:31:48.831Z,169.90
2018-01-13T00:32:48.820Z,161.00
2018-01-13T00:33:48.813Z,160.60
2018-01-13T00:34:48.805Z,159.20
2018-01-13T00:35:48.796Z,158.60
2018-01-13T00:36:48.788Z,158.00
2018-01-13T00:37:48.778Z,159.50
2018-01-13T00:38:48.775Z,162.20
2018-01-13T00:39:48.767Z,159.30
2018-01-13T00:40:48.758Z,159.70
2018-01-13T00:41:48.750Z,156.60
2018-01-13T00:42:48.742Z,158.20
2018-01-13T00:43:48.734Z,153.50
2018-01-13T00:44:48.725Z,153.50
2018-01-13T00:45:48.718Z,151.80
2018-01-13T00:46:48.704Z,160.00
2018-01-13T00:47:48.697Z,148.60
2018-01-13T00:48:48.688Z,159.50
2018-01-13T00:49:48.680Z,160.90
2018-01-13T00:50:48.671Z,162.50
2018-01-13T00:51:48.662Z,152.40
2018-01-13T00:52:48.653Z,152.90
2018-01-13T00:53:48.646Z,158.50
2018-01-13T00:54:48.642Z,157.70
2018-01-13T00:55:48.633Z,162.90
2018-01-13T00:56:48.624Z,153.70
2018-01-13T00:57:48.617Z,155.00
2018-01-13T00:58:48.608Z,164.70
2018-01-13T00:59:48.599Z,153.40
2018-01-13T01:00:48.589Z,150.00
2018-01-13T01:01:48.582Z,150.30
2018-01-13T01:02:48.570Z,153.80
2018-01-13T01:03:48.561Z,156.20
2018-01-13T01:04:48.552Z,157.30
2018-01-13T01:05:48.543Z,155.90
2018-01-13T01:06:48.540Z,157.90
2018-01-13T01:07:48.531Z,156.60
2018-01-13T01:08:48.522Z,160.10
2018-01-13T01:09:48.515Z,172.20
2018-01-13T01:10:48.501Z,173.70
2018-01-13T01:11:48.531Z,165.80
2018-01-13T01:12:48.483Z,177.90
2018-01-13T01:13:48.475Z,167.20
2018-01-13T01:14:48.467Z,167.80
2018-01-13T01:15:48.459Z,172.30
2018-01-13T01:16:48.450Z,175.20
2018-01-13T01:17:48.441Z,177.60
2018-01-13T01:18:48.437Z,180.30
2018-01-13T01:19:48.429Z,175.90
2018-01-13T01:20:48.420Z,177.20
2018-01-13T01:21:48.411Z,169.60
2018-01-13T01:22:48.403Z,170.20
2018-01-13T01:23:48.395Z,176.30
2018-01-13T01:24:48.386Z,178.90
2018-01-13T01:25:48.377Z,179.70
2018-01-13T01:26:48.365Z,174.80
2018-01-13T01:27:48.357Z,176.30
2018-01-13T01:28:48.349Z,167.60
2018-01-13T01:29:48.339Z,170.20
2018-01-13T01:30:48.331Z,171.20
2018-01-13T01:31:48.324Z,172.30
2018-01-13T01:32:48.314Z,174.30
2018-01-13T01:33:48.305Z,173.20
2018-01-13T01:34:48.302Z,177.50
2018-01-13T01:35:48.293Z,172.60
2018-01-13T01:36:48.285Z,178.80
2018-01-13T01:37:48.276Z,169.10
2018-01-13T01:38:48.268Z,168.60
2018-01-13T01:39:48.314Z,176.30
2018-01-13T01:40:48.251Z,166.70
2018-01-13T01:41:48.243Z,176.20
2018-01-13T01:42:48.230Z,175.80
2018-01-13T01:43:48.222Z,163.30
2018-01-13T01:44:48.212Z,167.10
2018-01-13T01:45:48.204Z,177.10
2018-01-13T01:46:48.197Z,178.30
2018-01-13T01:47:48.189Z,170.30
2018-01-13T01:48:48.179Z,165.70
2018-01-13T01:49:48.171Z,165.20
2018-01-13T01:50:48.167Z,172.80
2018-01-13T01:51:48.160Z,165.80
2018-01-13T01:52:48.151Z,161.40
2018-01-13T01:53:48.141Z,173.20
2018-01-13T01:54:48.135Z,168.00
2018-01-13T01:55:48.127Z,167.50
2018-01-13T01:56:48.120Z,167.00
2018-01-13T01:57:48.108Z,178.90
2018-01-13T01:58:48.096Z,172.60
2018-01-13T01:59:48.090Z,176.70
2018-01-13T02:00:48.079Z,170.30
2018-01-13T02:01:48.071Z,176.70
2018-01-13T02:02:48.063Z,178.40
2018-01-13T02:03:48.056Z,177.20
2018-01-13T02:04:48.046Z,178.60
2018-01-13T02:05:48.039Z,184.40
2018-01-13T02:06:48.034Z,173.80
2018-01-13T02:07:48.026Z,174.50
2018-01-13T02:08:48.017Z,180.60
2018-01-13T02:09:48.009Z,180.80
2018-01-13T02:10:47.997Z,162.40
2018-01-13T02:11:47.989Z,171.80
2018-01-13T02:12:47.979Z,179.40
2018-01-13T02:13:47.972Z,174.20
2018-01-13T02:14:47.968Z,181.60
2018-01-13T02:15:47.960Z,167.00
2018-01-13T02:16:47.951Z,178.50
2018-01-13T02:17:47.943Z,169.70
2018-01-13T02:18:47.935Z,176.60
2018-01-13T02:19:47.931Z,176.50
2018-01-13T02:20:47.918Z,174.80
2018-01-13T02:21:47.909Z,176.60
2018-01-13T02:22:47.898Z,168.10
2018-01-13T02:23:47.890Z,172.90
2018-01-13T02:24:47.882Z,172.20
2018-01-13T02:25:47.872Z,164.50
2018-01-13T02:26:47.866Z,161.90
2018-01-13T02:27:47.857Z,158.50
2018-01-13T02:28:47.847Z,170.70
2018-01-13T02:29:47.839Z,158.70
2018-01-13T02:30:47.836Z,165.00
2018-01-13T02:31:47.828Z,160.10
2018-01-13T02:32:47.819Z,152.30
2018-01-13T02:33:47.812Z,162.20
2018-01-13T02:34:47.803Z,166.70
2018-01-13T02:35:47.797Z,157.30
2018-01-13T02:36:47.788Z,158.00
2018-01-13T02:37:47.778Z,163.90
2018-01-13T02:38:47.766Z,172.90
2018-01-13T02:39:47.759Z,163.30
2018-01-13T02:40:47.749Z,171.30
2018-01-13T02:41:47.740Z,173.00
2018-01-13T02:42:47.733Z,178.90
2018-01-13T02:43:47.724Z,186.90
2018-01-13T02:44:47.716Z,176.40
2018-01-13T02:45:47.708Z,175.80
2018-01-13T02:46:47.704Z,199.00
2018-01-13T02:47:47.696Z,185.10
2018-01-13T02:48:47.688Z,182.70
2018-01-13T02:49:47.681Z,174.80
2018-01-13T02:50:47.671Z,179.80
2018-01-13T02:51:47.663Z,202.20
2018-01-13T02:52:47.654Z,197.90
2018-01-13T02:53:47.648Z,180.40
2018-01-13T02:54:47.634Z,181.70
2018-01-13T02:55:47.626Z,170.10
2018-01-13T02:56:47.617Z,172.10
2018-01-13T02:57:47.610Z,181.70
2018-01-13T02:58:47.602Z,181.80
2018-01-13T02:59:47.593Z,180.10
2018-01-13T03:00:47.584Z,176.30
2018-01-13T03:01:47.577Z,172.40
2018-01-13T03:02:47.572Z,164.00
2018-01-13T03:03:47.564Z,176.70
2018-01-13T03:04:47.557Z,166.80
2018-01-13T03:05:47.548Z,169.20
2018-01-13T03:06:47.539Z,169.00
2018-01-13T03:07:47.532Z,174.20
2018-01-13T03:08:47.523Z,171.90
2018-01-13T03:09:47.514Z,182.50
2018-01-13T03:10:47.501Z,182.40
2018-01-13T03:11:47.493Z,161.70
2018-01-13T03:12:47.484Z,173.40
2018-01-13T03:13:47.476Z,169.40
2018-01-13T03:14:47.472Z,164.80
2018-01-13T03:15:47.464Z,177.40
2018-01-13T03:16:47.455Z,164.70
2018-01-13T03:17:47.447Z,171.90
2018-01-13T03:18:47.437Z,177.20
2018-01-13T03:19:47.427Z,152.80
2018-01-13T03:20:47.417Z,153.00
2018-01-13T03:21:47.409Z,160.70
2018-01-13T03:22:47.402Z,149.00
2018-01-13T03:23:47.393Z,143.40
2018-01-13T03:24:47.384Z,152.80
2018-01-13T03:25:47.376Z,146.10
2018-01-13T03:26:47.372Z,152.40
2018-01-13T03:27:47.364Z,146.50
2018-01-13T03:28:47.357Z,153.90
2018-01-13T03:29:47.347Z,151.50
2018-01-13T03:30:47.340Z,155.10
2018-01-13T03:31:47.332Z,146.50
2018-01-13T03:32:47.325Z,150.20
2018-01-13T03:33:47.314Z,143.10
2018-01-13T03:34:47.301Z,147.20
2018-01-13T03:35:47.293Z,154.00
2018-01-13T03:36:47.284Z,148.80
2018-01-13T03:37:47.277Z,155.60
2018-01-13T03:38:47.268Z,157.80
2018-01-13T03:39:47.262Z,141.10
2018-01-13T03:40:47.251Z,142.50
2018-01-13T03:41:47.243Z,148.90
2018-01-13T03:42:47.239Z,144.00
2018-01-13T03:43:47.231Z,144.50
2018-01-13T03:44:47.222Z,137.70
2018-01-13T03:45:47.222Z,142.10
2018-01-13T03:46:47.205Z,127.60
2018-01-13T03:47:47.198Z,131.50
2018-01-13T03:48:47.190Z,134.00
2018-01-13T03:49:47.181Z,127.30
2018-01-13T03:50:47.168Z,121.10
2018-01-13T03:51:47.160Z,115.40
2018-01-13T03:52:47.152Z,121.10
2018-01-13T03:53:47.147Z,114.80
2018-01-13T03:54:47.136Z,110.60
2018-01-13T03:55:47.127Z,113.80
2018-01-13T03:56:47.118Z,109.20
2018-01-13T03:57:47.111Z,119.70
2018-01-13T03:58:47.106Z,107.20
2018-01-13T03:59:47.098Z,108.60
2018-01-13T04:00:47.089Z,106.70
2018-01-13T04:01:47.083Z,108.40
2018-01-13T04:02:47.072Z,102.70
2018-01-13T04:03:47.067Z,99.10
2018-01-13T04:04:47.055Z,102.70
2018-01-13T04:05:47.046Z,96.50
2018-01-13T04:06:47.036Z,93.80
2018-01-13T04:07:47.027Z,92.90
2018-01-13T04:08:47.017Z,84.00
2018-01-13T04:09:47.009Z,89.10
2018-01-13T04:10:47.001Z,88.80
2018-01-13T04:11:46.994Z,84.80
2018-01-13T04:12:46.984Z,80.40
2018-01-13T04:13:46.976Z,81.80
2018-01-13T04:14:46.972Z,83.20
2018-01-13T04:15:46.963Z,80.60
2018-01-13T04:16:46.954Z,73.50
2018-01-13T04:17:46.951Z,77.50
2018-01-13T04:18:46.934Z,79.30
2018-01-13T04:19:46.925Z,73.40
2018-01-13T04:20:46.916Z,75.60
2018-01-13T04:21:46.907Z,72.90
2018-01-13T04:22:46.904Z,74.10
2018-01-13T04:23:46.896Z,70.70
2018-01-13T04:24:46.886Z,72.70
2018-01-13T04:25:46.878Z,73.50
2018-01-13T04:26:46.870Z,68.30
2018-01-13T04:27:46.863Z,68.90
2018-01-13T04:28:46.852Z,73.30
2018-01-13T04:29:46.844Z,70.30
2018-01-13T04:30:46.833Z,69.40
2018-01-13T04:31:46.823Z,72.90
2018-01-13T04:32:46.814Z,74.00
2018-01-13T04:33:46.806Z,68.70
2018-01-13T04:34:46.798Z,67.90
2018-01-13T04:35:46.790Z,65.20
2018-01-13T04:36:46.780Z,65.70
2018-01-13T04:37:46.772Z,70.70
2018-01-13T04:38:46.768Z,67.40
2018-01-13T04:39:46.760Z,68.40
2018-01-13T04:40:46.751Z,65.60
2018-01-13T04:41:46.743Z,66.80
2018-01-13T04:42:46.734Z,67.80
2018-01-13T04:43:46.727Z,70.00
2018-01-13T04:44:46.763Z,69.40
2018-01-13T04:45:46.710Z,69.10
2018-01-13T04:46:46.696Z,63.70
2018-01-13T04:47:46.688Z,60.10
2018-01-13T04:48:46.678Z,66.40
2018-01-13T04:49:46.670Z,62.10
2018-01-13T04:50:46.662Z,67.60
2018-01-13T04:51:46.653Z,66.10
2018-01-13T04:52:46.644Z,66.10
2018-01-13T04:53:46.637Z,65.30
2018-01-13T04:54:46.633Z,65.20
2018-01-13T04:55:46.624Z,66.60
2018-01-13T04:56:46.615Z,60.80
2018-01-13T04:57:46.607Z,66.20
2018-01-13T04:58:46.598Z,62.80
2018-01-13T04:59:46.590Z,63.40
2018-01-13T05:00:46.581Z,57.50
2018-01-13T05:01:46.573Z,62.90
2018-01-13T05:02:46.561Z,62.80
2018-01-13T05:03:46.552Z,59.40
2018-01-13T05:04:46.544Z,62.30
2018-01-13T05:05:46.537Z,66.70
2018-01-13T05:06:46.528Z,60.70
2018-01-13T05:07:46.519Z,58.60
2018-01-13T05:08:46.511Z,62.80
2018-01-13T05:09:46.503Z,59.30
2018-01-13T05:10:46.500Z,52.20
2018-01-13T05:11:46.492Z,53.00
2018-01-13T05:12:46.481Z,55.90
2018-01-13T05:13:46.473Z,57.50
2018-01-13T05:14:46.466Z,51.80
2018-01-13T05:15:46.458Z,53.70
2018-01-13T05:16:46.448Z,53.50
2018-01-13T05:17:46.440Z,51.80
2018-01-13T05:18:46.428Z,53.10
2018-01-13T05:19:46.424Z,53.40
2018-01-13T05:20:46.411Z,57.00
2018-01-13T05:21:46.403Z,55.40
2018-01-13T05:22:46.400Z,56.30
2018-01-13T05:23:46.392Z,53.40
2018-01-13T05:24:46.384Z,50.90
2018-01-13T05:25:46.374Z,54.30
2018-01-13T05:26:46.362Z,53.30
2018-01-13T05:27:46.354Z,55.40
2018-01-13T05:28:46.345Z,52.20
2018-01-13T05:29:46.337Z,54.60
2018-01-13T05:30:46.330Z,53.60
2018-01-13T05:31:46.321Z,53.20
2018-01-13T05:32:46.312Z,56.00
2018-01-13T05:33:46.305Z,54.40
2018-01-13T05:34:46.301Z,57.10
2018-01-13T05:35:46.295Z,57.20
2018-01-13T05:36:46.284Z,55.50
2018-01-13T05:37:46.276Z,53.40
2018-01-13T05:38:46.268Z,56.20
2018-01-13T05:39:46.260Z,58.10
2018-01-13T05:40:46.250Z,58.90
2018-01-13T05:41:46.245Z,60.20
2018-01-13T05:42:46.231Z,65.10
2018-01-13T05:43:46.225Z,61.80
2018-01-13T05:44:46.214Z,60.30
2018-01-13T05:45:46.206Z,59.20
2018-01-13T05:46:46.198Z,62.00
2018-01-13T05:47:46.190Z,64.60
2018-01-13T05:48:46.182Z,64.10
2018-01-13T05:49:46.173Z,62.80
2018-01-13T05:50:46.170Z,63.00
2018-01-13T05:51:46.162Z,66.30
2018-01-13T05:52:46.153Z,62.80
2018-01-13T05:53:46.145Z,68.90
2018-01-13T05:54:46.140Z,67.70
2018-01-13T05:55:46.180Z,60.60
2018-01-13T05:56:46.120Z,61.90
2018-01-13T05:57:46.113Z,66.10
2018-01-13T05:58:46.100Z,65.20
2018-01-13T05:59:46.094Z,61.10
2018-01-13T06:00:46.084Z,67.30
2018-01-13T06:01:46.076Z,67.40
2018-01-13T06:02:46.068Z,74.80
2018-01-13T06:03:46.062Z,74.90
2018-01-13T06:04:46.051Z,73.70
2018-01-13T06:05:46.044Z,71.90
2018-01-13T06:06:46.040Z,73.90
2018-01-13T06:07:46.033Z,75.50
2018-01-13T06:08:46.023Z,78.40
2018-01-13T06:09:46.015Z,82.70
2018-01-13T06:10:46.007Z,77.90
2018-01-13T06:11:45.999Z,75.50
2018-01-13T06:12:45.991Z,82.60
2018-01-13T06:13:45.983Z,78.00
2018-01-13T06:14:45.971Z,74.40
2018-01-13T06:15:45.962Z,74.00
2018-01-13T06:16:45.953Z,71.00
2018-01-13T06:17:45.948Z,69.40
2018-01-13T06:18:45.938Z,63.80
2018-01-13T06:19:45.930Z,68.90
2018-01-13T06:20:45.921Z,68.10
2018-01-13T06:21:45.913Z,70.30
2018-01-13T06:22:45.910Z,67.70
2018-01-13T06:23:45.901Z,59.40
2018-01-13T06:24:45.892Z,66.50
2018-01-13T06:25:45.887Z,61.20
2018-01-13T06:26:45.872Z,66.50
2018-01-13T06:27:45.864Z,59.40
2018-01-13T06:28:45.856Z,56.60
2018-01-13T06:29:45.848Z,54.50
2018-01-13T06:30:45.844Z,52.70
2018-01-13T06:31:45.836Z,52.90
2018-01-13T06:32:45.828Z,52.60
2018-01-13T06:33:45.821Z,49.30
2018-01-13T06:34:45.812Z,50.90
2018-01-13T06:35:45.804Z,50.00
2018-01-13T06:36:45.794Z,47.90
2018-01-13T06:37:45.787Z,46.70
2018-01-13T06:38:45.774Z,47.50
2018-01-13T06:39:45.766Z,45.10
2018-01-13T06:40:45.759Z,47.70
2018-01-13T06:41:45.751Z,43.40
2018-01-13T06:42:45.741Z,45.30
2018-01-13T06:43:45.734Z,43.50
2018-01-13T06:44:45.724Z,43.40
2018-01-13T06:45:45.716Z,42.60
2018-01-13T06:46:45.713Z,44.90
2018-01-13T06:47:45.705Z,42.20
2018-01-13T06:48:45.696Z,44.00
2018-01-13T06:49:45.688Z,41.50
2018-01-13T06:50:45.680Z,39.90
2018-01-13T06:51:45.672Z,39.20
2018-01-13T06:52:45.664Z,38.70
2018-01-13T06:53:45.654Z,38.60
2018-01-13T06:54:45.642Z,39.60
2018-01-13T06:55:45.634Z,37.30
2018-01-13T06:56:45.625Z,38.90
2018-01-13T06:57:45.617Z,37.30
2018-01-13T06:58:45.610Z,38.10
2018-01-13T06:59:45.601Z,36.60
2018-01-13T07:00:45.592Z,36.90
2018-01-13T07:01:45.584Z,38.10
2018-01-13T07:02:45.580Z,37.40
2018-01-13T07:03:45.572Z,38.10
2018-01-13T07:04:45.564Z,37.00
2018-01-13T07:05:45.555Z,36.50
2018-01-13T07:06:45.547Z,37.70
2018-01-13T07:07:45.538Z,35.80
2018-01-13T07:08:45.529Z,38.90
2018-01-13T07:09:45.522Z,36.50
2018-01-13T07:10:45.508Z,38.10
2018-01-13T07:11:45.502Z,33.60
2018-01-13T07:12:45.491Z,35.80
2018-01-13T07:13:45.483Z,35.40
2018-01-13T07:14:45.475Z,37.20
2018-01-13T07:15:45.466Z,37.40
2018-01-13T07:16:45.457Z,34.10
2018-01-13T07:17:45.449Z,36.90
2018-01-13T07:18:45.444Z,35.00
2018-01-13T07:19:45.437Z,35.30
2018-01-13T07:20:45.427Z,31.80
2018-01-13T07:21:45.419Z,36.20
2018-01-13T07:22:45.410Z,36.90
2018-01-13T07:23:45.402Z,36.60
2018-01-13T07:24:45.394Z,37.40
2018-01-13T07:25:45.384Z,53.60
2018-01-13T07:26:45.372Z,35.10
2018-01-13T07:27:45.363Z,33.40
2018-01-13T07:28:45.354Z,32.20
2018-01-13T07:29:45.346Z,34.50
2018-01-13T07:30:45.342Z,37.80
2018-01-13T07:31:45.335Z,34.80
2018-01-13T07:32:45.324Z,31.50
2018-01-13T07:33:45.316Z,32.80
2018-01-13T07:34:45.304Z,33.00
2018-01-13T07:35:45.296Z,35.20
2018-01-13T07:36:45.286Z,36.40
2018-01-13T07:37:45.278Z,33.30
2018-01-13T07:38:45.270Z,31.60
2018-01-13T07:39:45.261Z,36.50
2018-01-13T07:40:45.252Z,32.40
2018-01-13T07:41:45.244Z,34.00
2018-01-13T07:42:45.240Z,34.60
2018-01-13T07:43:45.232Z,34.70
2018-01-13T07:44:45.224Z,35.00
2018-01-13T07:45:45.215Z,32.60
2018-01-13T07:46:45.208Z,32.50
2018-01-13T07:47:45.252Z,34.80
2018-01-13T07:48:45.190Z,30.90
2018-01-13T07:49:45.181Z,34.40
2018-01-13T07:50:45.169Z,28.90
2018-01-13T07:51:45.161Z,30.50
2018-01-13T07:52:45.151Z,31.20
2018-01-13T07:53:45.146Z,29.60
2018-01-13T07:54:45.135Z,33.10
2018-01-13T07:55:45.128Z,31.40
2018-01-13T07:56:45.126Z,28.60
2018-01-13T07:57:45.113Z,31.60
2018-01-13T07:58:45.108Z,32.30
2018-01-13T07:59:45.099Z,31.50
2018-01-13T08:00:45.090Z,29.10
2018-01-13T08:01:45.082Z,33.00
2018-01-13T08:02:45.075Z,32.50
2018-01-13T08:03:45.067Z,33.90
2018-01-13T08:04:45.058Z,43.50
2018-01-13T08:05:45.050Z,41.10
2018-01-13T08:06:45.038Z,31.40
2018-01-13T08:07:45.030Z,35.80
2018-01-13T08:08:45.027Z,34.80
2018-01-13T08:09:45.013Z,33.80
2018-01-13T08:10:45.006Z,31.10
2018-01-13T08:11:44.997Z,30.60
2018-01-13T08:12:44.990Z,30.50
2018-01-13T08:13:44.982Z,36.60
2018-01-13T08:14:44.977Z,35.80
2018-01-13T08:15:44.969Z,38.30
2018-01-13T08:16:44.961Z,36.90
2018-01-13T08:17:44.953Z,32.90
2018-01-13T08:18:44.945Z,31.50
2018-01-13T08:19:44.941Z,35.30
2018-01-13T08:20:44.929Z,30.00
2018-01-13T08:21:44.921Z,32.30
2018-01-13T08:22:44.908Z,34.70
2018-01-13T08:23:44.900Z,32.00
2018-01-13T08:24:44.891Z,31.40
2018-01-13T08:25:44.885Z,31.80
2018-01-13T08:26:44.877Z,31.00
2018-01-13T08:27:44.874Z,32.70
2018-01-13T08:28:44.861Z,32.70
2018-01-13T08:29:44.852Z,28.80
2018-01-13T08:30:44.849Z,31.70
2018-01-13T08:31:44.840Z,31.60
2018-01-13T08:32:44.831Z,31.70
2018-01-13T08:33:44.876Z,34.00
2018-01-13T08:34:44.817Z,33.00
2018-01-13T08:35:44.809Z,32.70
2018-01-13T08:36:44.800Z,30.70
2018-01-13T08:37:44.793Z,30.80
2018-01-13T08:38:44.782Z,31.70
2018-01-13T08:39:44.773Z,32.80
2018-01-13T08:40:44.764Z,32.10
2018-01-13T08:41:44.757Z,29.80
2018-01-13T08:42:44.751Z,31.50
2018-01-13T08:43:44.742Z,32.80
2018-01-13T08:44:44.733Z,30.20
2018-01-13T08:45:44.725Z,30.40
2018-01-13T08:46:44.722Z,31.20
2018-01-13T08:47:44.714Z,30.80
2018-01-13T08:48:44.709Z,30.90
2018-01-13T08:49:44.698Z,32.70
2018-01-13T08:50:44.690Z,35.00
2018-01-13T08:51:44.683Z,32.30
2018-01-13T08:52:44.673Z,34.20
2018-01-13T08:53:44.666Z,36.00
2018-01-13T08:54:44.654Z,34.50
2018-01-13T08:55:44.647Z,33.00
2018-01-13T08:56:44.638Z,34.90
2018-01-13T08:57:44.629Z,32.70
2018-01-13T08:58:44.622Z,33.10
2018-01-13T08:59:44.615Z,34.20
2018-01-13T09:00:44.607Z,31.70
2018-01-13T09:01:44.598Z,32.10
2018-01-13T09:02:44.595Z,33.70
2018-01-13T09:03:44.587Z,33.60
2018-01-13T09:04:44.578Z,31.50
2018-01-13T09:05:44.570Z,30.00
2018-01-13T09:06:44.563Z,37.40
2018-01-13T09:07:44.555Z,32.40
2018-01-13T09:08:44.547Z,32.50
2018-01-13T09:09:44.539Z,35.50
2018-01-13T09:10:44.528Z,34.10
2018-01-13T09:11:44.519Z,32.10
2018-01-13T09:12:44.511Z,34.50
2018-01-13T09:13:44.503Z,32.20
2018-01-13T09:14:44.495Z,34.70
2018-01-13T09:15:44.487Z,34.90
2018-01-13T09:16:44.479Z,33.90
2018-01-13T09:17:44.472Z,32.90
2018-01-13T09:18:44.468Z,33.90
2018-01-13T09:19:44.461Z,33.20
2018-01-13T09:20:44.453Z,29.80
2018-01-13T09:21:44.444Z,30.90
2018-01-13T09:22:44.437Z,34.40
2018-01-13T09:23:44.429Z,34.00
2018-01-13T09:24:44.421Z,35.60
2018-01-13T09:25:44.422Z,34.90
2018-01-13T09:26:44.402Z,34.40
2018-01-13T09:27:44.395Z,35.00
2018-01-13T09:28:44.396Z,32.70
2018-01-13T09:29:44.382Z,30.50
2018-01-13T09:30:44.375Z,32.50
2018-01-13T09:31:44.363Z,33.70
2018-01-13T09:32:44.354Z,33.40
2018-01-13T09:33:44.348Z,33.20
2018-01-13T09:34:44.345Z,32.10
2018-01-13T09:35:44.336Z,34.10
2018-01-13T09:36:44.329Z,34.90
2018-01-13T09:37:44.320Z,30.90
2018-01-13T09:38:44.308Z,34.10
2018-01-13T09:39:44.306Z,33.60
2018-01-13T09:40:44.293Z,32.20
2018-01-13T09:41:44.286Z,34.90
2018-01-13T09:42:44.282Z,31.80
2018-01-13T09:43:44.276Z,31.80
2018-01-13T09:44:44.266Z,31.40
2018-01-13T09:45:44.318Z,31.50
2018-01-13T09:46:44.251Z,35.00
2018-01-13T09:47:44.243Z,33.60
2018-01-13T09:48:44.235Z,30.10
2018-01-13T09:49:44.228Z,30.40
2018-01-13T09:50:44.215Z,38.10
2018-01-13T09:51:44.209Z,37.00
2018-01-13T09:52:44.202Z,41.10
2018-01-13T09:53:44.191Z,42.00
2018-01-13T09:54:44.185Z,32.20
2018-01-13T09:55:44.176Z,34.70
2018-01-13T09:56:44.169Z,34.30
2018-01-13T09:57:44.160Z,32.30
2018-01-13T09:58:44.158Z,29.70
2018-01-13T09:59:44.149Z,29.60
2018-01-13T10:00:44.140Z,30.00
2018-01-13T10:01:44.133Z,30.70
2018-01-13T10:02:44.125Z,30.90
2018-01-13T10:03:44.153Z,28.80
2018-01-13T10:04:44.110Z,28.60
2018-01-13T10:05:44.102Z,29.00
2018-01-13T10:06:44.089Z,30.70
2018-01-13T10:07:44.082Z,29.80
2018-01-13T10:08:44.072Z,28.80
2018-01-13T10:09:44.068Z,29.30
2018-01-13T10:10:44.059Z,27.50
2018-01-13T10:11:44.050Z,33.20
2018-01-13T10:12:44.041Z,28.60
2018-01-13T10:13:44.032Z,28.10
2018-01-13T10:14:44.029Z,28.10
2018-01-13T10:15:44.023Z,25.00
2018-01-13T10:16:44.013Z,26.10
2018-01-13T10:17:44.005Z,26.60
2018-01-13T10:18:43.997Z,26.80
2018-01-13T10:19:43.993Z,27.50
2018-01-13T10:20:43.980Z,25.90
2018-01-13T10:21:43.972Z,26.60
2018-01-13T10:22:43.961Z,25.90
2018-01-13T10:23:43.954Z,26.30
2018-01-13T10:24:43.944Z,24.70
2018-01-13T10:25:43.937Z,25.40
2018-01-13T10:26:43.931Z,26.90
2018-01-13T10:27:43.945Z,27.00
2018-01-13T10:28:43.914Z,28.80
2018-01-13T10:29:43.949Z,27.50
2018-01-13T10:30:43.904Z,26.30
2018-01-13T10:31:43.896Z,25.10
2018-01-13T10:32:43.889Z,26.20
2018-01-13T10:33:43.883Z,24.30
2018-01-13T10:34:43.875Z,25.80
2018-01-13T10:35:43.867Z,25.80
2018-01-13T10:36:43.859Z,24.50
2018-01-13T10:37:43.852Z,24.70
2018-01-13T10:38:43.842Z,24.40
2018-01-13T10:39:43.834Z,26.20
2018-01-13T10:40:43.826Z,21.80
2018-01-13T10:41:43.820Z,22.90
2018-01-13T10:42:43.817Z,23.70
2018-01-13T10:43:43.810Z,23.10
2018-01-13T10:44:43.806Z,23.80
2018-01-13T10:45:43.798Z,22.20
2018-01-13T10:46:43.835Z,22.70
2018-01-13T10:47:43.776Z,24.00
2018-01-13T10:48:43.768Z,25.40
2018-01-13T10:49:43.761Z,25.30
2018-01-13T10:50:43.754Z,23.80
2018-01-13T10:51:43.749Z,22.60
2018-01-13T10:52:43.740Z,22.60
2018-01-13T10:53:43.732Z,24.70
2018-01-13T10:54:43.730Z,21.70
2018-01-13T10:55:43.723Z,21.10
2018-01-13T10:56:43.717Z,20.80
2018-01-13T10:57:43.710Z,22.30
2018-01-13T10:58:43.706Z,23.50
2018-01-13T10:59:43.701Z,24.40
2018-01-13T11:00:43.695Z,23.30
2018-01-13T11:01:43.691Z,21.30
2018-01-13T11:02:43.683Z,20.70
2018-01-13T11:03:43.679Z,21.30
2018-01-13T11:04:43.675Z,22.80
2018-01-13T11:05:43.673Z,22.30
2018-01-13T11:06:43.670Z,20.60
2018-01-13T11:07:43.668Z,20.30
2018-01-13T11:08:43.666Z,22.70
2018-01-13T11:09:43.664Z,22.40
2018-01-13T11:10:43.670Z,22.20
2018-01-13T11:11:43.665Z,22.40
2018-01-13T11:12:43.663Z,22.00
2018-01-13T11:13:43.665Z,22.20
2018-01-13T11:14:43.662Z,23.50
2018-01-13T11:15:43.661Z,22.90
2018-01-13T11:16:43.663Z,20.40
2018-01-13T11:17:43.658Z,20.10
2018-01-13T11:18:43.654Z,22.50
2018-01-13T11:19:43.652Z,22.10
2018-01-13T11:20:43.653Z,20.80
2018-01-13T11:21:43.649Z,22.20
2018-01-13T11:22:43.648Z,21.90
2018-01-13T11:23:43.646Z,20.80
2018-01-13T11:24:43.644Z,23.60
2018-01-13T11:25:43.643Z,21.60
2018-01-13T11:26:43.650Z,21.90
2018-01-13T11:27:43.644Z,21.70
2018-01-13T11:28:43.641Z,20.40
2018-01-13T11:29:43.642Z,20.80
2018-01-13T11:30:43.648Z,21.20
2018-01-13T11:31:43.637Z,20.90
2018-01-13T11:32:43.638Z,20.00
2018-01-13T11:33:43.637Z,21.40
2018-01-13T11:34:43.628Z,19.50
2018-01-13T11:35:43.625Z,20.90
2018-01-13T11:36:43.623Z,21.20
2018-01-13T11:37:43.624Z,18.90
2018-01-13T11:38:43.620Z,20.30
2018-01-13T11:39:43.613Z,18.70
2018-01-13T11:40:43.610Z,19.60
2018-01-13T11:41:43.606Z,19.50
2018-01-13T11:42:43.610Z,20.20
2018-01-13T11:43:43.605Z,20.20
2018-01-13T11:44:43.605Z,19.70
2018-01-13T11:45:43.599Z,19.70
2018-01-13T11:46:43.592Z,20.70
2018-01-13T11:47:43.597Z,20.00
2018-01-13T11:48:43.592Z,20.90
2018-01-13T11:49:43.591Z,20.80
2018-01-13T11:50:43.590Z,20.90
2018-01-13T11:51:43.583Z,20.30
2018-01-13T11:52:43.576Z,20.40
2018-01-13T11:53:43.572Z,20.20
2018-01-13T11:54:43.569Z,21.70
2018-01-13T11:55:43.572Z,20.50
2018-01-13T11:56:43.560Z,19.80
2018-01-13T11:57:43.558Z,20.70
2018-01-13T11:58:43.579Z,20.10
2018-01-13T11:59:43.546Z,18.80
2018-01-13T12:00:43.540Z,19.00
2018-01-13T12:01:43.535Z,20.60
2018-01-13T12:02:43.532Z,22.90
2018-01-13T12:03:43.533Z,19.90
2018-01-13T12:04:43.521Z,18.60
2018-01-13T12:05:43.518Z,19.60
2018-01-13T12:06:43.517Z,20.40
2018-01-13T12:07:43.514Z,22.00
2018-01-13T12:08:43.507Z,19.20
2018-01-13T12:09:43.503Z,19.10
2018-01-13T12:10:43.500Z,19.20
2018-01-13T12:11:43.499Z,17.40
2018-01-13T12:12:43.490Z,18.40
2018-01-13T12:13:43.485Z,19.20
2018-01-13T12:14:43.479Z,19.50
2018-01-13T12:15:43.471Z,19.70
2018-01-13T12:16:43.468Z,18.20
2018-01-13T12:17:43.461Z,17.90
2018-01-13T12:18:43.459Z,19.00
2018-01-13T12:19:43.458Z,19.10
2018-01-13T12:20:43.444Z,20.20
2018-01-13T12:21:43.439Z,19.60
2018-01-13T12:22:43.442Z,18.10
2018-01-13T12:23:43.435Z,17.90
2018-01-13T12:24:43.428Z,17.70
2018-01-13T12:25:43.423Z,18.30
2018-01-13T12:26:43.420Z,18.50
2018-01-13T12:27:43.412Z,18.40
2018-01-13T12:28:43.406Z,17.70
2018-01-13T12:29:43.401Z,17.60
2018-01-13T12:30:43.392Z,18.00
2018-01-13T12:31:43.386Z,16.40
2018-01-13T12:32:43.381Z,17.80
2018-01-13T12:33:43.375Z,17.80
2018-01-13T12:34:43.374Z,17.90
2018-01-13T12:35:43.366Z,18.80
2018-01-13T12:36:43.360Z,16.60
2018-01-13T12:37:43.352Z,17.60
2018-01-13T12:38:43.350Z,18.50
2018-01-13T12:39:43.345Z,18.30
2018-01-13T12:40:43.338Z,17.80
2018-01-13T12:41:43.333Z,17.30
2018-01-13T12:42:43.328Z,17.90
2018-01-13T12:43:43.322Z,17.40
2018-01-13T12:44:43.315Z,17.50